Time;durP1;ratioP1;P1;durP2;ratioP2;P2;SDS_P1;SDS_P2;PMS_P1;PMS_P2;Temp;Humidity;BMP_temperature;BMP_pressure;BME280_temperature;BME280_humidity;BME280_pressure;Samples;Min_cycle;Max_cycle;Signal;HPM_P1;HPM_P2
2022/12/14 00:00:15;;;;;;;13.83;8.03;;;;;;;;;;4973300;28;20213;-66
2022/12/14 00:02:42;;;;;;;10.47;7.83;;;;;;;;;;4975828;28;20267;-67
2022/12/14 00:05:09;;;;;;;10.60;7.27;;;;;;;;;;4975037;28;20224;-67
2022/12/14 00:07:37;;;;;;;10.87;7.67;;;;;;;;;;4977930;28;20201;-66
2022/12/14 00:10:04;;;;;;;9.43;6.60;;;;;;;;;;4973417;28;20225;-66
2022/12/14 00:12:32;;;;;;;12.53;8.30;;;;;;;;;;4976765;28;20210;-67
2022/12/14 00:14:59;;;;;;;11.40;7.73;;;;;;;;;;4978530;28;20208;-67
2022/12/14 00:17:27;;;;;;;9.47;7.20;;;;;;;;;;4977595;28;20205;-67
2022/12/14 00:19:54;;;;;;;11.43;7.67;;;;;;;;;;4967556;28;20206;-67
2022/12/14 00:22:21;;;;;;;11.07;7.83;;;;;;;;;;4975071;28;20204;-67
2022/12/14 00:24:48;;;;;;;9.80;7.23;;;;;;;;;;4969217;28;20206;-67
2022/12/14 00:27:15;;;;;;;12.80;8.53;;;;;;;;;;4977677;28;20205;-67
2022/12/14 00:29:44;;;;;;;12.63;8.60;;;;;;;;;;4968597;28;20229;-67
2022/12/14 00:32:11;;;;;;;13.23;8.90;;;;;;;;;;4975387;28;20204;-67
2022/12/14 00:34:38;;;;;;;13.70;8.70;;;;;;;;;;4968903;28;20214;-67
2022/12/14 00:37:05;;;;;;;16.10;9.27;;;;;;;;;;4971238;28;20219;-67
2022/12/14 00:39:33;;;;;;;15.43;10.00;;;;;;;;;;4970583;28;20221;-67
2022/12/14 00:42:00;;;;;;;15.07;9.30;;;;;;;;;;4970273;28;20213;-67
2022/12/14 00:44:27;;;;;;;16.83;10.97;;;;;;;;;;4969414;28;20217;-67
2022/12/14 00:46:55;;;;;;;16.03;10.07;;;;;;;;;;4965711;28;20210;-67
2022/12/14 00:49:22;;;;;;;14.50;9.40;;;;;;;;;;4972395;28;20210;-67
2022/12/14 00:51:49;;;;;;;14.13;8.70;;;;;;;;;;4969555;28;20213;-67
2022/12/14 00:54:17;;;;;;;15.83;9.23;;;;;;;;;;4967810;28;20221;-67
2022/12/14 00:56:44;;;;;;;13.97;9.23;;;;;;;;;;4967950;28;20218;-67
2022/12/14 00:59:11;;;;;;;12.03;8.33;;;;;;;;;;4969511;28;20225;-67
2022/12/14 01:01:38;;;;;;;13.90;8.63;;;;;;;;;;4969537;28;20231;-67
2022/12/14 01:04:21;;;;;;;12.50;8.07;;;;;;;;;;4973733;28;20203;-67
2022/12/14 01:06:49;;;;;;;11.87;8.40;;;;;;;;;;4972058;28;20209;-67
2022/12/14 01:09:16;;;;;;;11.17;7.80;;;;;;;;;;4968821;28;20213;-68
2022/12/14 01:11:44;;;;;;;12.63;7.90;;;;;;;;;;4966788;28;20214;-68
2022/12/14 01:14:12;;;;;;;12.20;8.37;;;;;;;;;;4969957;28;20217;-67
2022/12/14 01:16:40;;;;;;;13.00;9.23;;;;;;;;;;4972808;28;20209;-68
2022/12/14 01:19:08;;;;;;;11.60;8.10;;;;;;;;;;4967641;28;20225;-68
2022/12/14 01:21:35;;;;;;;10.90;7.43;;;;;;;;;;4974100;28;20205;-67
2022/12/14 01:24:03;;;;;;;10.83;6.90;;;;;;;;;;4973284;28;20207;-68
2022/12/14 01:26:32;;;;;;;10.13;7.63;;;;;;;;;;4969131;28;20201;-67
2022/12/14 01:28:59;;;;;;;11.53;7.70;;;;;;;;;;4973072;28;20230;-67
2022/12/14 01:31:27;;;;;;;11.60;8.57;;;;;;;;;;4969007;28;20284;-67
2022/12/14 01:33:55;;;;;;;11.37;7.70;;;;;;;;;;4975921;28;20214;-68
2022/12/14 01:36:24;;;;;;;12.13;8.07;;;;;;;;;;4973167;28;20244;-68
2022/12/14 01:38:53;;;;;;;10.20;7.40;;;;;;;;;;4976743;28;20226;-67
2022/12/14 01:41:23;;;;;;;10.50;7.03;;;;;;;;;;4977125;28;20206;-67
2022/12/14 01:43:51;;;;;;;10.80;7.13;;;;;;;;;;4977987;28;20202;-67
2022/12/14 01:46:21;;;;;;;8.73;6.57;;;;;;;;;;4969248;28;20220;-67
2022/12/14 01:48:50;;;;;;;9.33;6.80;;;;;;;;;;4974790;28;20198;-67
2022/12/14 01:51:17;;;;;;;8.57;6.80;;;;;;;;;;4978161;28;20206;-67
2022/12/14 01:53:47;;;;;;;7.80;6.50;;;;;;;;;;4974148;28;20221;-67
2022/12/14 01:56:15;;;;;;;8.90;6.70;;;;;;;;;;4972661;28;20210;-67
2022/12/14 01:58:42;;;;;;;8.57;6.60;;;;;;;;;;4977261;28;20221;-68
2022/12/14 02:01:10;;;;;;;8.37;6.47;;;;;;;;;;4965682;28;20206;-67
2022/12/14 02:03:38;;;;;;;8.90;6.83;;;;;;;;;;4971667;28;20263;-67
2022/12/14 02:06:07;;;;;;;9.80;7.13;;;;;;;;;;4972107;28;20214;-67
2022/12/14 02:08:35;;;;;;;9.67;7.00;;;;;;;;;;4967033;28;20209;-67
2022/12/14 02:11:03;;;;;;;8.97;6.60;;;;;;;;;;4970144;28;20222;-67
2022/12/14 02:13:32;;;;;;;9.77;6.83;;;;;;;;;;4975985;28;20210;-68
2022/12/14 02:15:59;;;;;;;8.97;6.93;;;;;;;;;;4976948;28;20209;-67
2022/12/14 02:18:27;;;;;;;9.43;7.03;;;;;;;;;;4970395;28;20229;-67
2022/12/14 02:21:03;;;;;;;8.40;6.73;;;;;;;;;;4972802;28;20214;-67
2022/12/14 02:23:51;;;;;;;8.00;6.30;;;;;;;;;;4971770;28;20204;-67
2022/12/14 02:26:45;;;;;;;8.70;6.27;;;;;;;;;;4971720;28;20218;-67
2022/12/14 02:29:33;;;;;;;10.73;6.97;;;;;;;;;;4971700;28;20203;-67
2022/12/14 02:32:05;;;;;;;9.60;6.70;;;;;;;;;;4970731;28;20203;-67
2022/12/14 02:34:39;;;;;;;8.30;6.63;;;;;;;;;;4971046;28;20199;-67
2022/12/14 02:37:11;;;;;;;9.07;6.20;;;;;;;;;;4969939;28;20206;-67
2022/12/14 02:39:43;;;;;;;9.20;6.90;;;;;;;;;;4979129;28;20228;-68
2022/12/14 02:42:13;;;;;;;10.23;6.83;;;;;;;;;;4977334;28;20601;-67
2022/12/14 02:44:47;;;;;;;10.30;7.07;;;;;;;;;;4967841;28;20201;-67
2022/12/14 02:47:16;;;;;;;9.17;6.90;;;;;;;;;;4967085;28;20229;-67
2022/12/14 02:49:52;;;;;;;8.93;6.23;;;;;;;;;;4982323;28;20201;-68
2022/12/14 02:52:24;;;;;;;9.63;6.40;;;;;;;;;;4972241;28;20214;-67
2022/12/14 02:54:55;;;;;;;8.83;6.73;;;;;;;;;;4971808;28;20209;-67
2022/12/14 02:57:25;;;;;;;9.83;6.80;;;;;;;;;;4970933;28;20273;-67
2022/12/14 02:59:56;;;;;;;10.83;6.50;;;;;;;;;;4972283;28;20218;-67
2022/12/14 03:02:23;;;;;;;8.77;6.30;;;;;;;;;;4969102;28;20211;-67
2022/12/14 03:04:51;;;;;;;9.73;7.13;;;;;;;;;;4973080;28;20205;-67
2022/12/14 03:07:31;;;;;;;8.73;6.23;;;;;;;;;;4970827;28;20225;-67
2022/12/14 03:09:59;;;;;;;8.37;6.03;;;;;;;;;;4972898;28;20339;-67
2022/12/14 03:12:26;;;;;;;8.77;6.57;;;;;;;;;;4976724;28;20209;-67
2022/12/14 03:14:56;;;;;;;8.10;6.60;;;;;;;;;;4973603;28;20210;-67
2022/12/14 03:17:25;;;;;;;7.30;6.27;;;;;;;;;;4972793;28;20202;-67
2022/12/14 03:19:54;;;;;;;7.20;5.87;;;;;;;;;;4973627;28;20210;-67
2022/12/14 03:22:24;;;;;;;10.07;7.13;;;;;;;;;;4973290;28;20218;-67
2022/12/14 03:24:53;;;;;;;9.27;6.73;;;;;;;;;;4970856;28;20202;-67
2022/12/14 03:27:23;;;;;;;8.97;6.47;;;;;;;;;;4970972;28;20291;-67
2022/12/14 03:29:53;;;;;;;8.87;7.07;;;;;;;;;;4968771;28;20213;-67
2022/12/14 03:32:23;;;;;;;9.17;6.83;;;;;;;;;;4969934;28;20465;-67
2022/12/14 03:34:52;;;;;;;9.53;6.80;;;;;;;;;;4968425;28;20221;-67
2022/12/14 03:37:22;;;;;;;10.93;6.80;;;;;;;;;;4974116;28;20257;-67
2022/12/14 03:39:49;;;;;;;8.80;6.60;;;;;;;;;;4977133;28;20213;-67
2022/12/14 03:42:20;;;;;;;9.27;6.67;;;;;;;;;;4972127;28;20206;-67
2022/12/14 03:44:49;;;;;;;9.20;7.03;;;;;;;;;;4974331;28;20208;-67
2022/12/14 03:47:22;;;;;;;9.53;7.27;;;;;;;;;;4978842;28;20204;-67
2022/12/14 03:49:56;;;;;;;8.83;6.30;;;;;;;;;;4971698;28;20206;-68
2022/12/14 03:52:26;;;;;;;8.67;6.70;;;;;;;;;;4970857;28;20300;-68
2022/12/14 03:54:57;;;;;;;9.53;6.63;;;;;;;;;;4971239;28;20209;-68
2022/12/14 03:57:29;;;;;;;9.03;6.53;;;;;;;;;;4969261;28;20211;-67
2022/12/14 03:59:59;;;;;;;11.23;6.93;;;;;;;;;;4972531;28;20232;-68
2022/12/14 04:02:30;;;;;;;9.47;6.93;;;;;;;;;;4972459;28;20202;-67
2022/12/14 04:05:00;;;;;;;8.57;6.30;;;;;;;;;;4966074;28;20365;-67
2022/12/14 04:07:33;;;;;;;8.30;6.50;;;;;;;;;;4974433;28;20217;-67
2022/12/14 04:10:02;;;;;;;8.30;6.60;;;;;;;;;;4969924;28;20230;-67
2022/12/14 04:20:54;;;;;;;8.53;6.57;;;;;;;;;;4970764;28;20255;-68
2022/12/14 04:26:03;;;;;;;9.40;6.87;;;;;;;;;;4975551;28;20214;-68
2022/12/14 04:26:12;;;;;;;8.57;6.67;;;;;;;;;;4969030;28;20240;-67
2022/12/14 04:31:29;;;;;;;8.00;6.10;;;;;;;;;;4976175;28;20279;-67
2022/12/14 04:34:01;;;;;;;9.40;6.93;;;;;;;;;;4974317;28;20210;-67
2022/12/14 04:36:31;;;;;;;9.40;6.93;;;;;;;;;;4967334;28;20324;-67
2022/12/14 04:39:01;;;;;;;9.17;7.00;;;;;;;;;;4967621;28;20215;-66
2022/12/14 04:41:30;;;;;;;9.10;6.67;;;;;;;;;;4971263;28;20210;-66
2022/12/14 04:44:00;;;;;;;7.57;6.40;;;;;;;;;;4963170;28;20219;-66
2022/12/14 04:46:29;;;;;;;9.73;7.33;;;;;;;;;;4972839;28;20205;-66
2022/12/14 04:49:06;;;;;;;8.83;6.53;;;;;;;;;;4972430;28;20208;-66
2022/12/14 04:51:37;;;;;;;9.47;6.40;;;;;;;;;;4964204;28;20209;-66
2022/12/14 04:54:09;;;;;;;8.90;6.90;;;;;;;;;;4970578;28;20202;-66
2022/12/14 04:56:39;;;;;;;7.53;6.47;;;;;;;;;;4968302;28;20202;-66
2022/12/14 04:59:06;;;;;;;9.47;7.20;;;;;;;;;;4968596;28;20214;-66
2022/12/14 05:01:40;;;;;;;10.60;6.80;;;;;;;;;;4964618;28;20202;-66
2022/12/14 05:04:14;;;;;;;9.03;6.47;;;;;;;;;;4964371;28;20220;-67
2022/12/14 05:06:45;;;;;;;8.70;6.40;;;;;;;;;;4975274;28;20207;-66
2022/12/14 05:09:15;;;;;;;9.63;6.80;;;;;;;;;;4972744;28;20194;-66
2022/12/14 05:11:44;;;;;;;8.40;6.50;;;;;;;;;;4988827;28;20210;-66
2022/12/14 05:14:13;;;;;;;9.43;7.07;;;;;;;;;;4974228;28;20211;-66
2022/12/14 05:16:40;;;;;;;10.43;6.60;;;;;;;;;;4972348;28;20216;-66
2022/12/14 05:19:08;;;;;;;8.10;6.60;;;;;;;;;;4969388;28;20230;-66
2022/12/14 05:21:48;;;;;;;10.17;6.70;;;;;;;;;;4969443;28;20206;-66
2022/12/14 05:24:17;;;;;;;9.20;6.60;;;;;;;;;;4976959;28;20202;-66
2022/12/14 05:26:44;;;;;;;10.73;7.30;;;;;;;;;;4970458;28;20206;-66
2022/12/14 05:29:12;;;;;;;9.83;6.90;;;;;;;;;;4974705;28;20298;-66
2022/12/14 05:31:39;;;;;;;10.20;7.00;;;;;;;;;;4972214;28;20211;-66
2022/12/14 05:34:06;;;;;;;10.13;6.97;;;;;;;;;;4971975;28;20214;-66
2022/12/14 05:36:34;;;;;;;8.77;6.53;;;;;;;;;;4974135;28;20248;-68
2022/12/14 05:39:01;;;;;;;10.10;6.80;;;;;;;;;;4982564;28;20244;-68
2022/12/14 05:41:29;;;;;;;11.60;8.07;;;;;;;;;;4970460;28;20202;-68
2022/12/14 05:43:57;;;;;;;11.30;7.50;;;;;;;;;;4967316;28;20212;-68
2022/12/14 05:46:24;;;;;;;10.60;7.50;;;;;;;;;;4973267;28;20212;-67
2022/12/14 05:48:51;;;;;;;11.60;7.70;;;;;;;;;;4972711;28;20194;-67
2022/12/14 05:51:18;;;;;;;11.33;7.33;;;;;;;;;;4972139;28;20202;-67
2022/12/14 05:53:45;;;;;;;10.27;7.20;;;;;;;;;;4973694;28;20205;-67
2022/12/14 05:56:14;;;;;;;8.47;6.77;;;;;;;;;;4972600;28;20218;-67
2022/12/14 05:58:43;;;;;;;8.87;6.40;;;;;;;;;;4974884;28;20205;-67
2022/12/14 06:01:11;;;;;;;8.80;6.27;;;;;;;;;;4970872;28;20217;-67
2022/12/14 06:03:39;;;;;;;8.63;6.73;;;;;;;;;;4975595;28;20221;-67
2022/12/14 06:06:07;;;;;;;9.37;6.97;;;;;;;;;;4972496;28;20217;-67
2022/12/14 06:08:35;;;;;;;8.33;6.10;;;;;;;;;;4976596;28;20214;-67
2022/12/14 06:11:02;;;;;;;8.60;6.30;;;;;;;;;;4977734;28;20210;-68
2022/12/14 06:13:29;;;;;;;10.60;6.37;;;;;;;;;;4977165;28;20202;-67
2022/12/14 06:16:06;;;;;;;9.30;6.37;;;;;;;;;;4972656;28;20206;-67
2022/12/14 06:18:33;;;;;;;7.77;6.40;;;;;;;;;;4961989;28;20206;-67
2022/12/14 06:21:01;;;;;;;8.40;6.40;;;;;;;;;;4975899;28;20210;-67
2022/12/14 06:23:28;;;;;;;8.53;7.07;;;;;;;;;;4976694;28;20212;-67
2022/12/14 06:25:55;;;;;;;9.50;7.07;;;;;;;;;;4971630;28;20210;-67
2022/12/14 06:28:22;;;;;;;8.90;6.97;;;;;;;;;;4971907;28;20216;-67
2022/12/14 06:30:49;;;;;;;9.80;6.77;;;;;;;;;;4977225;28;20199;-67
2022/12/14 06:33:18;;;;;;;8.90;6.40;;;;;;;;;;4975685;28;20657;-67
2022/12/14 06:35:45;;;;;;;8.03;6.53;;;;;;;;;;4976390;28;20238;-67
2022/12/14 06:38:13;;;;;;;9.27;6.90;;;;;;;;;;4974915;28;20212;-67
2022/12/14 06:40:40;;;;;;;10.30;6.93;;;;;;;;;;4977509;28;20327;-67
2022/12/14 06:43:07;;;;;;;8.17;6.30;;;;;;;;;;4967215;28;20206;-67
2022/12/14 06:45:35;;;;;;;8.37;6.80;;;;;;;;;;4976182;28;20213;-67
2022/12/14 06:48:02;;;;;;;8.13;6.27;;;;;;;;;;4977872;28;20210;-67
2022/12/14 06:50:31;;;;;;;8.73;6.60;;;;;;;;;;4974365;28;20205;-67
2022/12/14 06:52:58;;;;;;;8.90;6.67;;;;;;;;;;4975732;28;20217;-68
2022/12/14 06:55:26;;;;;;;9.97;6.87;;;;;;;;;;4976040;28;20214;-67
2022/12/14 06:57:54;;;;;;;7.93;6.53;;;;;;;;;;4970590;28;20288;-67
2022/12/14 07:00:22;;;;;;;10.03;7.37;;;;;;;;;;4977087;28;20253;-67
2022/12/14 07:02:49;;;;;;;8.83;7.40;;;;;;;;;;4981490;28;20222;-67
2022/12/14 07:05:16;;;;;;;10.27;7.07;;;;;;;;;;4972915;28;20202;-67
2022/12/14 07:07:45;;;;;;;9.50;7.30;;;;;;;;;;4972607;28;20206;-67
2022/12/14 07:10:12;;;;;;;9.63;7.30;;;;;;;;;;4975800;28;20202;-67
2022/12/14 07:12:39;;;;;;;9.57;7.40;;;;;;;;;;4977636;28;20627;-67
2022/12/14 07:15:07;;;;;;;10.03;7.10;;;;;;;;;;4978112;28;20206;-67
2022/12/14 07:17:35;;;;;;;9.73;7.07;;;;;;;;;;4980229;28;20217;-67
2022/12/14 07:20:03;;;;;;;8.83;6.80;;;;;;;;;;4975324;28;20224;-67
2022/12/14 07:22:30;;;;;;;9.67;7.23;;;;;;;;;;4971124;28;20270;-67
2022/12/14 07:24:58;;;;;;;10.17;7.23;;;;;;;;;;4975575;28;20216;-67
2022/12/14 07:27:25;;;;;;;10.27;6.83;;;;;;;;;;4976839;28;20214;-67
2022/12/14 07:29:53;;;;;;;8.07;6.13;;;;;;;;;;4973494;28;20202;-67
2022/12/14 07:32:20;;;;;;;8.50;7.00;;;;;;;;;;4976579;28;20198;-68
2022/12/14 07:34:47;;;;;;;10.70;7.67;;;;;;;;;;4978553;28;20205;-67
2022/12/14 07:37:15;;;;;;;10.77;7.70;;;;;;;;;;4975678;28;20242;-67
2022/12/14 07:39:42;;;;;;;9.43;7.63;;;;;;;;;;4977798;28;20224;-67
2022/12/14 07:42:11;;;;;;;11.20;8.40;;;;;;;;;;4978879;28;20337;-67
2022/12/14 07:44:38;;;;;;;12.50;9.10;;;;;;;;;;4976459;28;20207;-67
2022/12/14 07:47:06;;;;;;;12.23;8.63;;;;;;;;;;4972429;28;20210;-67
2022/12/14 07:49:33;;;;;;;10.63;8.00;;;;;;;;;;4979804;28;20201;-67
2022/12/14 07:52:00;;;;;;;11.97;8.57;;;;;;;;;;4971656;28;20202;-67
2022/12/14 07:54:27;;;;;;;12.87;8.03;;;;;;;;;;4977839;28;20213;-67
2022/12/14 07:56:55;;;;;;;9.83;7.67;;;;;;;;;;4977216;28;20225;-67
2022/12/14 07:59:23;;;;;;;11.70;8.70;;;;;;;;;;4978105;28;20220;-67
2022/12/14 08:01:52;;;;;;;11.90;8.53;;;;;;;;;;4979029;28;20202;-67
2022/12/14 08:04:20;;;;;;;11.27;7.73;;;;;;;;;;4977760;28;20201;-67
2022/12/14 08:06:48;;;;;;;9.20;7.30;;;;;;;;;;4973549;28;20209;-67
2022/12/14 08:09:15;;;;;;;11.03;7.80;;;;;;;;;;4980086;28;20226;-67
2022/12/14 08:11:42;;;;;;;9.53;7.13;;;;;;;;;;4973484;28;20205;-67
2022/12/14 08:14:12;;;;;;;9.93;7.30;;;;;;;;;;4972028;28;20205;-67
2022/12/14 08:16:40;;;;;;;10.60;7.67;;;;;;;;;;4978293;28;20255;-67
2022/12/14 08:19:08;;;;;;;11.17;7.90;;;;;;;;;;4976511;28;20206;-67
2022/12/14 08:21:35;;;;;;;10.00;7.53;;;;;;;;;;4976167;28;20239;-67
2022/12/14 08:24:02;;;;;;;12.87;8.17;;;;;;;;;;4975432;28;20259;-67
2022/12/14 08:26:29;;;;;;;11.27;8.57;;;;;;;;;;4976454;28;20202;-67
2022/12/14 08:28:56;;;;;;;10.77;8.43;;;;;;;;;;4974591;28;20202;-67
2022/12/14 08:31:24;;;;;;;13.53;9.50;;;;;;;;;;4972978;28;20213;-67
2022/12/14 08:33:53;;;;;;;10.03;7.77;;;;;;;;;;4976984;28;20198;-67
2022/12/14 08:36:21;;;;;;;9.47;7.90;;;;;;;;;;4975287;28;20252;-67
2022/12/14 08:38:52;;;;;;;10.00;7.00;;;;;;;;;;4970177;28;20198;-67
2022/12/14 08:41:19;;;;;;;9.37;7.50;;;;;;;;;;4975082;28;20224;-67
2022/12/14 08:43:49;;;;;;;9.67;7.07;;;;;;;;;;4975760;28;20213;-67
2022/12/14 08:46:16;;;;;;;10.10;7.67;;;;;;;;;;4976379;28;20225;-67
2022/12/14 08:48:44;;;;;;;8.43;7.17;;;;;;;;;;4976536;28;20213;-67
2022/12/14 08:51:12;;;;;;;11.50;7.70;;;;;;;;;;4972787;28;20213;-67
2022/12/14 08:53:40;;;;;;;9.83;7.47;;;;;;;;;;4979946;28;20229;-67
2022/12/14 08:56:09;;;;;;;10.90;8.70;;;;;;;;;;4975053;28;20243;-67
2022/12/14 08:58:36;;;;;;;9.90;7.50;;;;;;;;;;4982520;28;20202;-67
2022/12/14 09:01:04;;;;;;;15.60;10.23;;;;;;;;;;4986267;28;20236;-67
2022/12/14 09:03:31;;;;;;;21.17;12.40;;;;;;;;;;4976461;28;20202;-66
2022/12/14 09:06:01;;;;;;;13.10;9.67;;;;;;;;;;4977921;28;20225;-67
2022/12/14 09:08:31;;;;;;;11.90;7.40;;;;;;;;;;4979835;28;20790;-67
2022/12/14 09:10:58;;;;;;;9.93;7.10;;;;;;;;;;4980167;28;20205;-67
2022/12/14 09:13:25;;;;;;;13.43;8.53;;;;;;;;;;4975880;28;20213;-67
2022/12/14 09:15:59;;;;;;;11.47;7.60;;;;;;;;;;4977879;28;20208;-67
2022/12/14 09:18:26;;;;;;;12.17;8.87;;;;;;;;;;4975374;28;20210;-67
2022/12/14 09:20:54;;;;;;;11.87;8.83;;;;;;;;;;4981379;28;20209;-67
2022/12/14 09:23:21;;;;;;;11.57;8.40;;;;;;;;;;4977114;28;20297;-67
2022/12/14 09:25:58;;;;;;;10.93;8.50;;;;;;;;;;4980258;28;20202;-67
2022/12/14 09:28:25;;;;;;;12.10;9.13;;;;;;;;;;4981897;28;20221;-67
2022/12/14 09:30:54;;;;;;;12.50;9.67;;;;;;;;;;4981155;28;20208;-67
2022/12/14 09:33:21;;;;;;;15.17;11.63;;;;;;;;;;4980028;28;20210;-67
2022/12/14 09:35:48;;;;;;;24.83;16.73;;;;;;;;;;4976692;28;20240;-67
2022/12/14 09:38:16;;;;;;;15.07;11.13;;;;;;;;;;4979559;28;20214;-67
2022/12/14 09:40:47;;;;;;;12.73;10.20;;;;;;;;;;4974023;28;20273;-67
2022/12/14 09:43:24;;;;;;;12.53;9.73;;;;;;;;;;4984708;28;20217;-67
2022/12/14 09:45:53;;;;;;;12.10;9.57;;;;;;;;;;4982769;28;20213;-67
2022/12/14 09:48:25;;;;;;;23.93;20.93;;;;;;;;;;4972975;28;20214;-67
2022/12/14 09:50:53;;;;;;;14.70;12.87;;;;;;;;;;4983589;28;20194;-67
2022/12/14 09:53:21;;;;;;;12.47;10.17;;;;;;;;;;4981542;28;20206;-67
2022/12/14 09:55:50;;;;;;;11.93;9.50;;;;;;;;;;4981194;28;20209;-67
2022/12/14 09:58:21;;;;;;;12.50;9.43;;;;;;;;;;4981196;28;20216;-67
2022/12/14 10:00:52;;;;;;;11.93;9.20;;;;;;;;;;4976414;28;20255;-67
2022/12/14 10:03:32;;;;;;;18.67;10.47;;;;;;;;;;4974846;28;20248;-67
2022/12/14 10:06:07;;;;;;;14.93;9.73;;;;;;;;;;4973446;28;20216;-67
2022/12/14 10:08:36;;;;;;;13.33;9.53;;;;;;;;;;4976618;28;20209;-68
2022/12/14 10:11:07;;;;;;;11.83;8.93;;;;;;;;;;4977879;28;20218;-68
2022/12/14 10:13:45;;;;;;;11.33;9.47;;;;;;;;;;4977243;28;20207;-67
2022/12/14 10:16:17;;;;;;;11.33;8.40;;;;;;;;;;4973235;28;20216;-67
2022/12/14 10:19:05;;;;;;;10.70;8.30;;;;;;;;;;4973394;28;20210;-67
2022/12/14 10:21:53;;;;;;;10.67;8.47;;;;;;;;;;4976791;28;20236;-67
2022/12/14 10:24:22;;;;;;;12.30;9.43;;;;;;;;;;4983665;28;20206;-67
2022/12/14 10:26:51;;;;;;;11.53;8.53;;;;;;;;;;4984824;28;20205;-67
2022/12/14 10:29:22;;;;;;;9.57;7.50;;;;;;;;;;4973555;28;20210;-67
2022/12/14 10:31:55;;;;;;;10.77;8.33;;;;;;;;;;4974769;28;20206;-67
2022/12/14 10:34:24;;;;;;;14.10;10.07;;;;;;;;;;4982014;28;20209;-67
2022/12/14 10:36:53;;;;;;;10.20;8.70;;;;;;;;;;4972721;28;20245;-67
2022/12/14 10:39:29;;;;;;;11.77;8.40;;;;;;;;;;4974565;28;20223;-67
2022/12/14 10:42:00;;;;;;;10.70;8.57;;;;;;;;;;4971228;28;20232;-67
2022/12/14 10:44:31;;;;;;;11.00;9.13;;;;;;;;;;4970339;28;20273;-67
2022/12/14 10:46:59;;;;;;;10.13;8.47;;;;;;;;;;4973985;28;20213;-67
2022/12/14 10:49:29;;;;;;;13.47;10.23;;;;;;;;;;4964088;28;20210;-67
2022/12/14 10:52:00;;;;;;;10.90;9.70;;;;;;;;;;4995867;28;20212;-67
2022/12/14 10:54:30;;;;;;;13.40;10.90;;;;;;;;;;4969284;28;20292;-67
2022/12/14 10:56:57;;;;;;;12.93;10.37;;;;;;;;;;4973677;28;20209;-67
2022/12/14 10:59:27;;;;;;;13.87;10.57;;;;;;;;;;4972944;28;20215;-67
2022/12/14 11:01:59;;;;;;;12.63;9.57;;;;;;;;;;4970029;28;20240;-67
2022/12/14 11:04:30;;;;;;;12.07;10.00;;;;;;;;;;4983477;28;20225;-66
2022/12/14 11:06:58;;;;;;;11.73;8.90;;;;;;;;;;4972326;28;20206;-67
2022/12/14 11:09:26;;;;;;;10.57;8.63;;;;;;;;;;4973121;28;20209;-67
2022/12/14 11:11:58;;;;;;;11.77;9.23;;;;;;;;;;4974495;28;20204;-67
2022/12/14 11:14:26;;;;;;;10.20;8.57;;;;;;;;;;4978161;28;20204;-67
2022/12/14 11:16:53;;;;;;;11.30;8.50;;;;;;;;;;4976195;28;20278;-66
2022/12/14 11:19:22;;;;;;;10.57;8.70;;;;;;;;;;4970641;28;20217;-67
2022/12/14 11:21:50;;;;;;;11.03;8.77;;;;;;;;;;4974991;28;20218;-68
2022/12/14 11:24:22;;;;;;;10.03;8.23;;;;;;;;;;4972514;28;20217;-67
2022/12/14 11:26:50;;;;;;;10.70;8.80;;;;;;;;;;4971138;28;20210;-67
2022/12/14 11:29:20;;;;;;;9.87;8.03;;;;;;;;;;4971886;28;20205;-67
2022/12/14 11:31:48;;;;;;;10.83;8.73;;;;;;;;;;4971713;28;20236;-67
2022/12/14 11:34:26;;;;;;;10.90;8.70;;;;;;;;;;4972130;28;20553;-68
2022/12/14 11:36:53;;;;;;;10.53;8.67;;;;;;;;;;4976719;28;20230;-67
2022/12/14 11:39:21;;;;;;;10.67;8.10;;;;;;;;;;4977189;28;20209;-66
2022/12/14 11:41:50;;;;;;;11.87;8.83;;;;;;;;;;4974592;28;20214;-67
2022/12/14 11:44:25;;;;;;;12.53;9.10;;;;;;;;;;4970998;28;20220;-66
2022/12/14 11:46:55;;;;;;;12.43;9.13;;;;;;;;;;4969024;28;20228;-67
2022/12/14 11:49:25;;;;;;;14.40;9.37;;;;;;;;;;4968259;28;20275;-67
2022/12/14 11:51:59;;;;;;;15.13;10.03;;;;;;;;;;4970117;28;20198;-67
2022/12/14 11:54:26;;;;;;;15.47;11.67;;;;;;;;;;4971291;28;20205;-67
2022/12/14 11:56:57;;;;;;;12.53;9.37;;;;;;;;;;4974631;28;20214;-67
2022/12/14 11:59:27;;;;;;;16.10;12.10;;;;;;;;;;4975480;28;20209;-67
2022/12/14 12:01:55;;;;;;;27.67;17.60;;;;;;;;;;4977394;28;20217;-67
2022/12/14 12:04:23;;;;;;;20.20;14.67;;;;;;;;;;4977390;28;20197;-67
2022/12/14 12:06:54;;;;;;;15.33;11.77;;;;;;;;;;4975874;28;20213;-67
2022/12/14 12:09:26;;;;;;;12.23;9.27;;;;;;;;;;4971788;28;20198;-67
2022/12/14 12:11:53;;;;;;;10.53;9.20;;;;;;;;;;4975983;28;20198;-67
2022/12/14 12:14:25;;;;;;;14.90;10.87;;;;;;;;;;4969017;28;20206;-67
2022/12/14 12:16:52;;;;;;;11.57;9.03;;;;;;;;;;4972052;28;20207;-67
2022/12/14 12:19:23;;;;;;;10.07;8.90;;;;;;;;;;4973162;28;20205;-67
2022/12/14 12:21:52;;;;;;;12.33;8.90;;;;;;;;;;4975961;28;20221;-67
2022/12/14 12:24:22;;;;;;;13.50;10.37;;;;;;;;;;4975545;28;20217;-67
2022/12/14 12:26:51;;;;;;;17.13;13.50;;;;;;;;;;4976212;28;20209;-67
2022/12/14 12:29:21;;;;;;;12.90;10.50;;;;;;;;;;4975658;28;20216;-67
2022/12/14 12:31:53;;;;;;;11.37;9.23;;;;;;;;;;4974463;28;20198;-67
2022/12/14 12:34:22;;;;;;;11.73;9.17;;;;;;;;;;4975046;28;20206;-66
2022/12/14 12:36:53;;;;;;;14.27;11.07;;;;;;;;;;4976102;28;20257;-67
2022/12/14 12:39:24;;;;;;;11.30;8.47;;;;;;;;;;4975867;28;20205;-67
2022/12/14 12:41:55;;;;;;;13.87;10.20;;;;;;;;;;4972274;28;20258;-67
2022/12/14 12:44:28;;;;;;;15.23;11.20;;;;;;;;;;4978940;28;20247;-67
2022/12/14 12:47:05;;;;;;;19.43;14.40;;;;;;;;;;4972972;28;20202;-67
2022/12/14 12:49:32;;;;;;;16.17;12.53;;;;;;;;;;4967539;28;20198;-67
2022/12/14 12:52:03;;;;;;;16.10;10.70;;;;;;;;;;4971190;28;20217;-67
2022/12/14 12:54:32;;;;;;;14.70;11.77;;;;;;;;;;4971535;28;20214;-67
2022/12/14 12:57:01;;;;;;;14.17;10.70;;;;;;;;;;4974434;28;20642;-67
2022/12/14 12:59:34;;;;;;;11.00;9.07;;;;;;;;;;4973064;28;20198;-67
2022/12/14 13:02:03;;;;;;;12.77;9.60;;;;;;;;;;4971512;28;20236;-67
2022/12/14 13:04:32;;;;;;;10.77;8.83;;;;;;;;;;4967279;28;20225;-67
2022/12/14 13:07:01;;;;;;;13.10;9.90;;;;;;;;;;4971916;28;20202;-67
2022/12/14 13:09:34;;;;;;;12.93;10.07;;;;;;;;;;4970386;28;20206;-67
2022/12/14 13:12:02;;;;;;;13.17;10.27;;;;;;;;;;4970375;28;20231;-68
2022/12/14 13:14:32;;;;;;;10.60;8.67;;;;;;;;;;4974218;28;20209;-67
2022/12/14 13:17:01;;;;;;;9.77;7.97;;;;;;;;;;4969802;28;20206;-66
2022/12/14 13:19:31;;;;;;;9.83;8.23;;;;;;;;;;4971594;28;20202;-67
2022/12/14 13:21:59;;;;;;;10.77;8.23;;;;;;;;;;4968416;28;20222;-67
2022/12/14 13:24:26;;;;;;;15.17;10.70;;;;;;;;;;4964729;28;20198;-67
2022/12/14 13:27:05;;;;;;;11.97;9.80;;;;;;;;;;4973889;28;20197;-67
2022/12/14 13:29:44;;;;;;;13.10;10.50;;;;;;;;;;4974423;28;20213;-67
2022/12/14 13:32:17;;;;;;;21.87;13.37;;;;;;;;;;4973976;28;20208;-67
2022/12/14 13:34:53;;;;;;;11.60;9.20;;;;;;;;;;4978335;28;20201;-67
2022/12/14 13:37:44;;;;;;;12.87;9.47;;;;;;;;;;4976895;28;20218;-67
2022/12/14 13:40:31;;;;;;;10.23;8.23;;;;;;;;;;4973909;28;20214;-67
2022/12/14 13:43:05;;;;;;;11.80;9.70;;;;;;;;;;4974972;28;20220;-67
2022/12/14 13:45:35;;;;;;;11.77;9.80;;;;;;;;;;4977662;28;20326;-67
2022/12/14 13:48:07;;;;;;;12.63;9.43;;;;;;;;;;4975371;28;20206;-67
2022/12/14 13:50:37;;;;;;;13.43;9.43;;;;;;;;;;4976485;28;20221;-67
2022/12/14 13:53:07;;;;;;;11.70;8.90;;;;;;;;;;4979035;28;20206;-66
2022/12/14 13:55:35;;;;;;;11.33;8.67;;;;;;;;;;5000727;28;20216;-66
2022/12/14 13:58:09;;;;;;;10.10;7.80;;;;;;;;;;4971001;28;20213;-67
2022/12/14 14:00:50;;;;;;;12.97;8.83;;;;;;;;;;4976484;28;20210;-67
2022/12/14 14:03:41;;;;;;;11.80;9.40;;;;;;;;;;4976303;28;20224;-66
2022/12/14 14:06:09;;;;;;;12.60;9.73;;;;;;;;;;4978689;28;20225;-67
2022/12/14 14:08:37;;;;;;;13.20;9.77;;;;;;;;;;4971365;28;20209;-67
2022/12/14 14:11:22;;;;;;;12.07;9.33;;;;;;;;;;4971757;28;20221;-67
2022/12/14 14:14:04;;;;;;;11.87;9.10;;;;;;;;;;4974071;28;20198;-66
2022/12/14 14:16:33;;;;;;;13.33;9.60;;;;;;;;;;4976945;28;20202;-67
2022/12/14 14:19:03;;;;;;;11.27;9.23;;;;;;;;;;4970038;28;20210;-67
2022/12/14 14:21:33;;;;;;;11.43;8.57;;;;;;;;;;4979659;28;20698;-67
2022/12/14 14:24:00;;;;;;;11.00;8.70;;;;;;;;;;4973508;28;20214;-67
2022/12/14 14:26:28;;;;;;;12.33;8.60;;;;;;;;;;4978457;28;20210;-66
2022/12/14 14:29:15;;;;;;;10.47;8.17;;;;;;;;;;4974323;28;20318;-67
2022/12/14 14:31:50;;;;;;;15.03;10.83;;;;;;;;;;4970840;28;20204;-67
2022/12/14 14:34:19;;;;;;;16.57;10.73;;;;;;;;;;4978069;28;20244;-67
2022/12/14 14:36:47;;;;;;;12.57;10.17;;;;;;;;;;4975658;28;20240;-66
2022/12/14 14:39:29;;;;;;;12.67;9.80;;;;;;;;;;4969418;28;20213;-67
2022/12/14 14:41:57;;;;;;;12.37;9.27;;;;;;;;;;4978244;28;20289;-67
2022/12/14 14:44:29;;;;;;;11.43;9.27;;;;;;;;;;4978869;28;20215;-67
2022/12/14 14:46:57;;;;;;;11.07;8.60;;;;;;;;;;4973712;28;20240;-67
2022/12/14 14:49:26;;;;;;;11.87;9.30;;;;;;;;;;4973435;28;20210;-67
2022/12/14 14:51:53;;;;;;;12.63;10.10;;;;;;;;;;4969281;28;20255;-66
2022/12/14 14:54:27;;;;;;;13.80;10.27;;;;;;;;;;4978833;28;20207;-67
2022/12/14 14:56:54;;;;;;;15.20;9.87;;;;;;;;;;4969147;28;20259;-66
2022/12/14 14:59:43;;;;;;;11.40;9.83;;;;;;;;;;4974427;28;20216;-66